Bei Facebook empfehlenBei Twitter postenGoogle plusPinterest

Das Wetter im Erzgebirge am 22.12.2015

Wetter und Klima am 22.12.2015 Holzhau im Erzgebirge (630m ü.NN)
Letzte gemessene Temperatur und Uhrzeit der Messung23:45:00 Uhr9.10 °C
Temperatur (Maximum / Höchstwert) und Uhrzeit der Messung14:45:00 Uhr10.80 °C
Temperatur (Minimum / Tiefstwert) und Uhrzeit der Messung19:45:005.80 °C
Errechneter Absolutwert der Temperaturschwankungen zwischen Tmin und Tmax des Tages5.00 K
Errechnete Tagesmitteltemperatur8.04688 °C
Gesamt - Niederschlag des Tages (in flüssiger Form)0.00 Liter / m²
Luftdruck (Maximum / Höchstwert) und Zeitpunkt der Messung10:30:00 Uhr1021.20 hPa
Luftdruck (Minimum / Tiefstwert) und Zeitpunkt der Messung00:45:00 Uhr1017.70 hPa
Errechneter Absolutwert der Luftdruckschwankungen des Tages3.50 hPa
Höchste gemessene Windgeschwindigkeit und Uhrzeit der Messung04:30:00 Uhr18.72 km/h
Errechnete Windhäufigkeit in Relation zu den Messwerten des Tages54.16667 %
Niedrigste Windkühle (Windchill) und Zeitpunkt der Messung00:15:00 Uhr3.60 °C
Taupunkt (Maximum / Höchstwert) und Uhrzeit der Messung12:15:00 Uhr9.20 °C
Taupunkt (Minimum / Tiefstwert) und Uhrzeit der Messung19:45:004.60 °C
Anzahl der automatisch eingelesenen Messwerte 96

Detaillierte Wetter- und Klima- Messwerte für den 22.12.2015 in Holzhau im Erzgebirge (630m ü.NN)
ZeitTemperaturLuftdruckRel. LuftfeuchteWindWindrichtungWindchillTaupunktNiederschlag l/m²
23:45:009.10 °C1019.40 hPa87.00 %16.20 km/hSW6.70 °C7.10 °C 
23:30:008.90 °C1019.30 hPa88.00 %8.64 km/hW7.60 °C7.00 °C 
23:15:008.70 °C1019.50 hPa88.00 %15.84 km/hWSW6.20 °C6.80 °C 
23:00:008.30 °C1019.50 hPa89.00 %6.60 °C 
22:45:008.10 °C1019.40 hPa89.00 %6.40 °C 
22:30:008.30 °C1019.50 hPa89.00 %6.60 °C 
22:15:008.40 °C1019.70 hPa89.00 %3.96 km/hWSW8.40 °C6.70 °C 
22:00:008.40 °C1019.90 hPa89.00 %6.70 °C 
21:45:008.70 °C1019.70 hPa90.00 %7.20 °C 
21:30:008.90 °C1019.60 hPa90.00 %7.40 °C 
21:15:008.80 °C1019.60 hPa91.00 %7.40 °C 
21:00:008.40 °C1019.70 hPa93.00 %4.68 km/hWNW8.40 °C7.30 °C 
20:45:007.60 °C1019.80 hPa93.00 %5.04 km/hSW7.00 °C6.50 °C 
20:30:006.50 °C1019.80 hPa93.00 %5.50 °C 
20:15:006.40 °C1020.00 hPa93.00 %5.40 °C 
20:00:006.00 °C1020.10 hPa92.00 %4.80 °C 
19:45:005.80 °C1020.10 hPa92.00 %4.60 °C 
19:30:006.10 °C1020.10 hPa91.00 %4.70 °C 
19:15:006.30 °C1019.80 hPa91.00 %4.90 °C 
19:00:006.40 °C1019.80 hPa91.00 %5.00 °C 
18:45:006.90 °C1019.90 hPa90.00 %5.40 °C 
18:30:007.40 °C1019.70 hPa90.00 %5.90 °C 
18:15:007.60 °C1019.90 hPa90.00 %6.10 °C 
18:00:007.80 °C1020.10 hPa90.00 %6.30 °C 
17:45:007.80 °C1020.20 hPa90.00 %6.30 °C 
17:30:007.90 °C1020.30 hPa90.00 %6.40 °C 
17:15:008.10 °C1020.20 hPa89.00 %6.40 °C 
17:00:008.30 °C1019.90 hPa89.00 %6.60 °C 
16:45:008.60 °C1020.20 hPa89.00 %6.90 °C 
16:30:008.80 °C1019.90 hPa89.00 %7.10 °C 
16:15:008.90 °C1019.70 hPa88.00 %2.88 km/hWNW8.90 °C7.00 °C 
16:00:009.30 °C1019.90 hPa87.00 %3.24 km/hW9.30 °C7.30 °C 
15:45:009.80 °C1019.90 hPa87.00 %7.70 °C 
15:30:0010.10 °C1019.80 hPa87.00 %9.36 km/hW8.90 °C8.00 °C 
15:15:0010.50 °C1019.80 hPa87.00 %8.28 km/hWNW9.50 °C8.40 °C 
15:00:0010.70 °C1019.70 hPa87.00 %5.40 km/hWSW10.40 °C8.60 °C 
14:45:0010.80 °C1019.70 hPa87.00 %3.96 km/hW10.80 °C8.70 °C 
14:30:0010.60 °C1019.60 hPa87.00 %7.92 km/hNW9.70 °C8.50 °C 
14:15:0010.60 °C1019.50 hPa87.00 %6.12 km/hSSW10.10 °C8.50 °C 
14:00:0010.70 °C1019.70 hPa86.00 %2.52 km/hW10.70 °C8.50 °C 
13:45:0010.80 °C1019.60 hPa87.00 %5.76 km/hNNW10.50 °C8.70 °C 
13:30:0010.80 °C1019.80 hPa87.00 %5.40 km/hSSW10.50 °C8.70 °C 
13:15:0010.80 °C1019.80 hPa87.00 %8.64 km/hW9.80 °C8.70 °C 
13:00:0010.70 °C1019.70 hPa88.00 %8.80 °C 
12:45:0010.40 °C1019.70 hPa88.00 %7.56 km/hWNW9.60 °C8.50 °C 
12:30:0010.60 °C1020.00 hPa89.00 %8.90 °C 
12:15:0010.80 °C1020.20 hPa90.00 %5.04 km/hWNW10.70 °C9.20 °C 
12:00:0010.20 °C1020.20 hPa92.00 %9.00 °C 
11:45:009.10 °C1020.30 hPa92.00 %7.90 °C 
11:30:008.40 °C1020.40 hPa92.00 %7.20 °C 
11:15:007.90 °C1020.70 hPa92.00 %6.70 °C 
11:00:007.60 °C1020.80 hPa91.00 %6.20 °C 
10:45:007.60 °C1021.00 hPa91.00 %6.20 °C 
10:30:007.60 °C1021.20 hPa91.00 %1.44 km/hSW7.60 °C6.20 °C 
10:15:007.60 °C1021.20 hPa90.00 %6.10 °C 
10:00:007.80 °C1021.20 hPa91.00 %6.40 °C 
09:45:007.60 °C1021.20 hPa90.00 %6.10 °C 
09:30:007.40 °C1021.00 hPa90.00 %5.90 °C 
09:15:007.30 °C1021.10 hPa90.00 %8.64 km/hWNW5.70 °C5.80 °C 
09:00:007.30 °C1021.10 hPa90.00 %5.80 °C 
08:45:007.20 °C1021.00 hPa90.00 %2.52 km/hW7.20 °C5.70 °C 
08:30:007.10 °C1021.10 hPa90.00 %5.04 km/hWNW6.50 °C5.60 °C 
08:15:006.90 °C1020.90 hPa90.00 %5.40 °C 
08:00:006.80 °C1020.50 hPa90.00 %5.30 °C 
07:45:006.60 °C1020.40 hPa89.00 %7.92 km/hW5.00 °C4.90 °C 
07:30:006.80 °C1020.40 hPa89.00 %3.60 km/hWSW6.80 °C5.10 °C 
07:15:006.90 °C1020.20 hPa89.00 %6.84 km/hWNW5.70 °C5.20 °C 
07:00:006.60 °C1019.80 hPa89.00 %3.60 km/hW6.60 °C4.90 °C 
06:45:006.60 °C1019.70 hPa88.00 %2.88 km/hWNW6.60 °C4.80 °C 
06:30:006.70 °C1020.00 hPa88.00 %14.04 km/hWNW4.00 °C4.90 °C 
06:15:006.80 °C1019.80 hPa88.00 %3.96 km/hNW6.80 °C5.00 °C 
06:00:006.90 °C1019.70 hPa88.00 %7.92 km/hW5.40 °C5.10 °C 
05:45:007.10 °C1019.50 hPa88.00 %3.60 km/hWSW7.10 °C5.30 °C 
05:30:007.20 °C1019.50 hPa87.00 %8.64 km/hWNW5.60 °C5.20 °C 
05:15:007.50 °C1019.40 hPa87.00 %6.12 km/hNNW6.60 °C5.50 °C 
05:00:007.60 °C1019.40 hPa87.00 %3.24 km/hSW7.60 °C5.60 °C 
04:45:007.60 °C1019.30 hPa87.00 %6.84 km/hNW6.50 °C5.60 °C 
04:30:007.60 °C1019.00 hPa86.00 %18.72 km/hW4.50 °C5.40 °C 
04:15:007.60 °C1018.80 hPa86.00 %10.08 km/hWNW5.70 °C5.40 °C 
04:00:007.50 °C1018.40 hPa87.00 %5.50 °C 
03:45:007.40 °C1018.20 hPa86.00 %2.88 km/hW7.40 °C5.20 °C 
03:30:007.40 °C1018.40 hPa86.00 %7.56 km/hWNW6.10 °C5.20 °C 
03:15:007.60 °C1018.20 hPa86.00 %9.72 km/hNW5.80 °C5.40 °C 
03:00:007.80 °C1018.10 hPa86.00 %10.44 km/hWSW5.90 °C5.60 °C 
02:45:007.90 °C1018.30 hPa86.00 %12.96 km/hWNW5.60 °C5.70 °C 
02:30:007.80 °C1017.90 hPa86.00 %11.88 km/hSSW5.70 °C5.60 °C 
02:15:007.60 °C1018.00 hPa87.00 %6.84 km/hW6.50 °C5.60 °C 
02:00:007.50 °C1018.10 hPa87.00 %5.50 °C 
01:45:007.40 °C1018.20 hPa87.00 %2.16 km/hWSW7.40 °C5.40 °C 
01:30:007.40 °C1018.10 hPa87.00 %12.96 km/hWNW5.00 °C5.40 °C 
01:15:007.30 °C1018.40 hPa88.00 %8.28 km/hW5.80 °C5.40 °C 
01:00:007.20 °C1018.10 hPa88.00 %9.36 km/hW5.40 °C5.30 °C 
00:45:007.00 °C1017.70 hPa88.00 %5.20 °C 
00:30:006.80 °C1017.70 hPa88.00 %3.96 km/hWSW6.80 °C5.00 °C 
00:15:006.70 °C1017.70 hPa88.00 %16.56 km/hWSW3.60 °C4.90 °C 
00:00:006.50 °C1017.70 hPa88.00 %4.70 °C 

Permanenter Link zu dieser Seite: Wetter im Erzgebirge am 22.12.2015
Performance-Info: Die Erstellung der Seite / Statistik(en) / Tabelle(n) erforderte 5 Datenbankserver-Abfrage(n) und dauerte 101 Millisekunden. (Dieser Messwert ist von der Gesamt-Auslastung des Servers abhängig.)
Erzgebirge - Wetter | Erzgebirge - Wetter (Mobilgeräte) | Komplette Klimadatenbank